sensor_id;sensor_type;location;lat;lon;timestamp;temperature;humidity
9095;DHT22;4583;49.796;9.902;2023-03-26T00:04:21;10.00;92.00
9095;DHT22;4583;49.796;9.902;2023-03-26T00:14:25;10.10;91.90
9095;DHT22;4583;49.796;9.902;2023-03-26T00:24:27;10.20;91.80
9095;DHT22;4583;49.796;9.902;2023-03-26T00:34:30;10.30;91.70
9095;DHT22;4583;49.796;9.902;2023-03-26T00:44:34;10.40;91.80
9095;DHT22;4583;49.796;9.902;2023-03-26T00:54:36;10.40;91.80
9095;DHT22;4583;49.796;9.902;2023-03-26T01:04:38;10.30;91.90
9095;DHT22;4583;49.796;9.902;2023-03-26T01:14:40;10.30;92.00
9095;DHT22;4583;49.796;9.902;2023-03-26T01:24:42;10.10;92.10
9095;DHT22;4583;49.796;9.902;2023-03-26T01:35:11;9.90;92.90
9095;DHT22;4583;49.796;9.902;2023-03-26T01:47:24;9.70;93.20
9095;DHT22;4583;49.796;9.902;2023-03-26T02:20:56;9.40;93.90
9095;DHT22;4583;49.796;9.902;2023-03-26T02:30:57;9.20;94.40
9095;DHT22;4583;49.796;9.902;2023-03-26T02:41:03;9.20;94.70
9095;DHT22;4583;49.796;9.902;2023-03-26T02:51:05;9.10;94.80
9095;DHT22;4583;49.796;9.902;2023-03-26T03:01:07;9.10;95.00
9095;DHT22;4583;49.796;9.902;2023-03-26T03:11:11;9.10;95.10
9095;DHT22;4583;49.796;9.902;2023-03-26T03:21:15;9.10;95.10
9095;DHT22;4583;49.796;9.902;2023-03-26T03:31:16;9.10;95.20
9095;DHT22;4583;49.796;9.902;2023-03-26T03:41:18;9.10;95.40
9095;DHT22;4583;49.796;9.902;2023-03-26T03:51:20;9.00;95.30
9095;DHT22;4583;49.796;9.902;2023-03-26T04:21:26;9.10;95.90
9095;DHT22;4583;49.796;9.902;2023-03-26T04:31:30;9.10;95.90
9095;DHT22;4583;49.796;9.902;2023-03-26T04:41:32;9.20;96.00
9095;DHT22;4583;49.796;9.902;2023-03-26T04:51:38;9.20;95.90
9095;DHT22;4583;49.796;9.902;2023-03-26T05:01:42;9.20;96.00
9095;DHT22;4583;49.796;9.902;2023-03-26T05:11:46;9.40;96.00
9095;DHT22;4583;49.796;9.902;2023-03-26T05:21:48;9.40;95.90
9095;DHT22;4583;49.796;9.902;2023-03-26T05:31:50;9.40;95.70
9095;DHT22;4583;49.796;9.902;2023-03-26T05:41:52;9.50;95.80
9095;DHT22;4583;49.796;9.902;2023-03-26T05:51:54;9.50;95.80
9095;DHT22;4583;49.796;9.902;2023-03-26T06:01:56;9.50;95.80
9095;DHT22;4583;49.796;9.902;2023-03-26T06:11:57;9.60;96.20
9095;DHT22;4583;49.796;9.902;2023-03-26T06:21:59;9.70;95.80
9095;DHT22;4583;49.796;9.902;2023-03-26T06:33:16;9.90;95.80
9095;DHT22;4583;49.796;9.902;2023-03-26T06:43:18;10.10;95.30
9095;DHT22;4583;49.796;9.902;2023-03-26T06:53:20;10.20;95.20
9095;DHT22;4583;49.796;9.902;2023-03-26T07:11:04;10.20;95.10
9095;DHT22;4583;49.796;9.902;2023-03-26T07:21:07;10.40;95.20
9095;DHT22;4583;49.796;9.902;2023-03-26T07:31:20;10.40;95.00
9095;DHT22;4583;49.796;9.902;2023-03-26T07:41:28;10.50;94.90
9095;DHT22;4583;49.796;9.902;2023-03-26T08:30:22;10.70;95.70
9095;DHT22;4583;49.796;9.902;2023-03-26T09:10:50;10.80;96.50
